Terminal Aerodrome Forecast
Issued by NWS

Current Version | Previous Version | Graphics & Text | Print | Product List | Glossary On
Versions: 1 2 3 4 5 6 7 8 9 10 11 12 13 14 15 16 17 18 19 20 21 22 23 24
427
FTUS41 KPBZ 220006 AAA
TAFHLG
TAF AMD
KHLG 220006Z 2200/2224 19005KT P6SM BKN100
      TEMPO 2200/2201 -SHRA
     FM220900 10005KT P6SM BKN100
     FM222100 10010KT 3SM -RA BR OVC025=

USA.gov is the U.S. government's official web portal to all federal, state and local government web resources and services.